<?xml version="1.0" encoding="UTF-8" standalone="no" ?>
<gpx xmlns="http://www.topografix.com/GPX/1/1" xmlns:xsi="http://www.w3.org/2001/XMLSchema-instance" xsi:schemaLocation="http://www.topografix.com/GPX/1/1 http://www.topografix.com/GPX/1/1/gpx.xsd" version="1.1" creator="VisuGPX - https://www.visugpx.com">
  <metadata>
    <name>StMacaireMauges_Avresne_20km</name>
    <desc><![CDATA[gnerando idor:7268932]]></desc>
  </metadata>
  <trk>
    <name><![CDATA[StMacaire_Avresne_19.7km-7268932]]></name>
    <extensions>
      <line xmlns="http://www.topografix.com/GPX/gpx_style/0/2">
        <color>0000FF</color>
        <width>4</width>
      </line>
    </extensions>
    <trkseg>
      <trkpt lat="47.12487" lon="-0.99484">
        <ele>96</ele>
        <time>2023-11-13T08:02:59Z</time>
      </trkpt>
      <trkpt lat="47.1245" lon="-0.99489">
        <ele>97</ele>
        <time>2023-11-13T08:03:49Z</time>
      </trkpt>
      <trkpt lat="47.12432" lon="-0.99485">
        <ele>98</ele>
        <time>2023-11-13T08:04:13Z</time>
      </trkpt>
      <trkpt lat="47.12413" lon="-0.99489">
        <ele>99</ele>
        <time>2023-11-13T08:04:38Z</time>
      </trkpt>
      <trkpt lat="47.12395" lon="-0.99497">
        <ele>100</ele>
        <time>2023-11-13T08:05:04Z</time>
      </trkpt>
      <trkpt lat="47.12381" lon="-0.99515">
        <ele>99</ele>
        <time>2023-11-13T08:05:28Z</time>
      </trkpt>
      <trkpt lat="47.12328" lon="-0.9954">
        <ele>99</ele>
        <time>2023-11-13T08:06:43Z</time>
      </trkpt>
      <trkpt lat="47.12313" lon="-0.99554">
        <ele>99</ele>
        <time>2023-11-13T08:07:06Z</time>
      </trkpt>
      <trkpt lat="47.12296" lon="-0.99564">
        <ele>99</ele>
        <time>2023-11-13T08:07:31Z</time>
      </trkpt>
      <trkpt lat="47.12278" lon="-0.99572">
        <ele>99</ele>
        <time>2023-11-13T08:07:56Z</time>
      </trkpt>
      <trkpt lat="47.12259" lon="-0.99577">
        <ele>99</ele>
        <time>2023-11-13T08:08:22Z</time>
      </trkpt>
      <trkpt lat="47.1225" lon="-0.99602">
        <ele>99</ele>
        <time>2023-11-13T08:08:47Z</time>
      </trkpt>
      <trkpt lat="47.12232" lon="-0.996">
        <ele>99</ele>
        <time>2023-11-13T08:09:11Z</time>
      </trkpt>
      <trkpt lat="47.12214" lon="-0.99603">
        <ele>99</ele>
        <time>2023-11-13T08:09:36Z</time>
      </trkpt>
      <trkpt lat="47.12178" lon="-0.99618">
        <ele>99</ele>
        <time>2023-11-13T08:10:26Z</time>
      </trkpt>
      <trkpt lat="47.12107" lon="-0.99655">
        <ele>101</ele>
        <time>2023-11-13T08:12:06Z</time>
      </trkpt>
      <trkpt lat="47.12089" lon="-0.9965">
        <ele>102</ele>
        <time>2023-11-13T08:12:31Z</time>
      </trkpt>
      <trkpt lat="47.12071" lon="-0.99653">
        <ele>102</ele>
        <time>2023-11-13T08:12:55Z</time>
      </trkpt>
      <trkpt lat="47.12034" lon="-0.99667">
        <ele>103</ele>
        <time>2023-11-13T08:13:46Z</time>
      </trkpt>
      <trkpt lat="47.11997" lon="-0.99676">
        <ele>104</ele>
        <time>2023-11-13T08:14:36Z</time>
      </trkpt>
      <trkpt lat="47.1198" lon="-0.99684">
        <ele>105</ele>
        <time>2023-11-13T08:15:00Z</time>
      </trkpt>
      <trkpt lat="47.11966" lon="-0.99701">
        <ele>105</ele>
        <time>2023-11-13T08:15:24Z</time>
      </trkpt>
      <trkpt lat="47.11947" lon="-0.99695">
        <ele>105</ele>
        <time>2023-11-13T08:15:50Z</time>
      </trkpt>
      <trkpt lat="47.11929" lon="-0.99697">
        <ele>105</ele>
        <time>2023-11-13T08:16:14Z</time>
      </trkpt>
      <trkpt lat="47.1189" lon="-0.99695">
        <ele>105</ele>
        <time>2023-11-13T08:17:06Z</time>
      </trkpt>
      <trkpt lat="47.11872" lon="-0.99689">
        <ele>106</ele>
        <time>2023-11-13T08:17:31Z</time>
      </trkpt>
      <trkpt lat="47.11798" lon="-0.99684">
        <ele>104</ele>
        <time>2023-11-13T08:19:09Z</time>
      </trkpt>
      <trkpt lat="47.11761" lon="-0.99687">
        <ele>103</ele>
        <time>2023-11-13T08:19:59Z</time>
      </trkpt>
      <trkpt lat="47.11748" lon="-0.99669">
        <ele>103</ele>
        <time>2023-11-13T08:20:23Z</time>
      </trkpt>
      <trkpt lat="47.11712" lon="-0.99672">
        <ele>102</ele>
        <time>2023-11-13T08:21:11Z</time>
      </trkpt>
      <trkpt lat="47.11699" lon="-0.99723">
        <ele>101</ele>
        <time>2023-11-13T08:22:00Z</time>
      </trkpt>
      <trkpt lat="47.11683" lon="-0.99739">
        <ele>100</ele>
        <time>2023-11-13T08:22:26Z</time>
      </trkpt>
      <trkpt lat="47.11675" lon="-0.99763">
        <ele>100</ele>
        <time>2023-11-13T08:22:50Z</time>
      </trkpt>
      <trkpt lat="47.11675" lon="-0.99845">
        <ele>100</ele>
        <time>2023-11-13T08:24:05Z</time>
      </trkpt>
      <trkpt lat="47.11656" lon="-0.99841">
        <ele>100</ele>
        <time>2023-11-13T08:24:30Z</time>
      </trkpt>
      <trkpt lat="47.11641" lon="-0.99857">
        <ele>99</ele>
        <time>2023-11-13T08:24:55Z</time>
      </trkpt>
      <trkpt lat="47.1164" lon="-0.99884">
        <ele>99</ele>
        <time>2023-11-13T08:25:20Z</time>
      </trkpt>
      <trkpt lat="47.11651" lon="-0.99937">
        <ele>99</ele>
        <time>2023-11-13T08:26:10Z</time>
      </trkpt>
      <trkpt lat="47.11651" lon="-0.99965">
        <ele>99</ele>
        <time>2023-11-13T08:26:35Z</time>
      </trkpt>
      <trkpt lat="47.1164" lon="-0.99988">
        <ele>99</ele>
        <time>2023-11-13T08:27:01Z</time>
      </trkpt>
      <trkpt lat="47.11632" lon="-1.00012">
        <ele>99</ele>
        <time>2023-11-13T08:27:25Z</time>
      </trkpt>
      <trkpt lat="47.11612" lon="-1.00012">
        <ele>98</ele>
        <time>2023-11-13T08:27:52Z</time>
      </trkpt>
      <trkpt lat="47.11563" lon="-0.99977">
        <ele>97</ele>
        <time>2023-11-13T08:29:05Z</time>
      </trkpt>
      <trkpt lat="47.11555" lon="-0.99953">
        <ele>98</ele>
        <time>2023-11-13T08:29:29Z</time>
      </trkpt>
      <trkpt lat="47.11556" lon="-0.99926">
        <ele>99</ele>
        <time>2023-11-13T08:29:53Z</time>
      </trkpt>
      <trkpt lat="47.11552" lon="-0.999">
        <ele>99</ele>
        <time>2023-11-13T08:30:18Z</time>
      </trkpt>
      <trkpt lat="47.11541" lon="-0.99878">
        <ele>99</ele>
        <time>2023-11-13T08:30:42Z</time>
      </trkpt>
      <trkpt lat="47.11466" lon="-0.99797">
        <ele>100</ele>
        <time>2023-11-13T08:32:47Z</time>
      </trkpt>
      <trkpt lat="47.11448" lon="-0.99785">
        <ele>100</ele>
        <time>2023-11-13T08:33:13Z</time>
      </trkpt>
      <trkpt lat="47.11407" lon="-0.99728">
        <ele>101</ele>
        <time>2023-11-13T08:34:28Z</time>
      </trkpt>
      <trkpt lat="47.11395" lon="-0.99707">
        <ele>102</ele>
        <time>2023-11-13T08:34:53Z</time>
      </trkpt>
      <trkpt lat="47.11379" lon="-0.99692">
        <ele>102</ele>
        <time>2023-11-13T08:35:19Z</time>
      </trkpt>
      <trkpt lat="47.11361" lon="-0.99684">
        <ele>102</ele>
        <time>2023-11-13T08:35:44Z</time>
      </trkpt>
      <trkpt lat="47.11342" lon="-0.99681">
        <ele>102</ele>
        <time>2023-11-13T08:36:09Z</time>
      </trkpt>
      <trkpt lat="47.11292" lon="-0.99714">
        <ele>101</ele>
        <time>2023-11-13T08:37:22Z</time>
      </trkpt>
      <trkpt lat="47.11203" lon="-0.99815">
        <ele>100</ele>
        <time>2023-11-13T08:39:52Z</time>
      </trkpt>
      <trkpt lat="47.11147" lon="-0.99887">
        <ele>99</ele>
        <time>2023-11-13T08:41:32Z</time>
      </trkpt>
      <trkpt lat="47.11131" lon="-0.99902">
        <ele>98</ele>
        <time>2023-11-13T08:41:57Z</time>
      </trkpt>
      <trkpt lat="47.11102" lon="-0.99938">
        <ele>98</ele>
        <time>2023-11-13T08:42:48Z</time>
      </trkpt>
      <trkpt lat="47.11044" lon="-1.00048">
        <ele>99</ele>
        <time>2023-11-13T08:44:54Z</time>
      </trkpt>
      <trkpt lat="47.11024" lon="-1.00093">
        <ele>100</ele>
        <time>2023-11-13T08:45:43Z</time>
      </trkpt>
      <trkpt lat="47.11012" lon="-1.00114">
        <ele>100</ele>
        <time>2023-11-13T08:46:08Z</time>
      </trkpt>
      <trkpt lat="47.10965" lon="-1.00235">
        <ele>102</ele>
        <time>2023-11-13T08:48:14Z</time>
      </trkpt>
      <trkpt lat="47.10942" lon="-1.00309">
        <ele>101</ele>
        <time>2023-11-13T08:49:28Z</time>
      </trkpt>
      <trkpt lat="47.10889" lon="-1.00454">
        <ele>101</ele>
        <time>2023-11-13T08:51:58Z</time>
      </trkpt>
      <trkpt lat="47.10879" lon="-1.00476">
        <ele>102</ele>
        <time>2023-11-13T08:52:22Z</time>
      </trkpt>
      <trkpt lat="47.10863" lon="-1.00526">
        <ele>102</ele>
        <time>2023-11-13T08:53:12Z</time>
      </trkpt>
      <trkpt lat="47.10857" lon="-1.00551">
        <ele>102</ele>
        <time>2023-11-13T08:53:36Z</time>
      </trkpt>
      <trkpt lat="47.1085" lon="-1.00633">
        <ele>102</ele>
        <time>2023-11-13T08:54:51Z</time>
      </trkpt>
      <trkpt lat="47.10843" lon="-1.00658">
        <ele>101</ele>
        <time>2023-11-13T08:55:16Z</time>
      </trkpt>
      <trkpt lat="47.10826" lon="-1.00765">
        <ele>100</ele>
        <time>2023-11-13T08:56:55Z</time>
      </trkpt>
      <trkpt lat="47.10815" lon="-1.00787">
        <ele>101</ele>
        <time>2023-11-13T08:57:20Z</time>
      </trkpt>
      <trkpt lat="47.10815" lon="-1.00815">
        <ele>101</ele>
        <time>2023-11-13T08:57:46Z</time>
      </trkpt>
      <trkpt lat="47.10825" lon="-1.00838">
        <ele>101</ele>
        <time>2023-11-13T08:58:10Z</time>
      </trkpt>
      <trkpt lat="47.10836" lon="-1.00889">
        <ele>100</ele>
        <time>2023-11-13T08:58:59Z</time>
      </trkpt>
      <trkpt lat="47.10852" lon="-1.00903">
        <ele>100</ele>
        <time>2023-11-13T08:59:24Z</time>
      </trkpt>
      <trkpt lat="47.10848" lon="-1.0093">
        <ele>100</ele>
        <time>2023-11-13T08:59:49Z</time>
      </trkpt>
      <trkpt lat="47.10867" lon="-1.00978">
        <ele>99</ele>
        <time>2023-11-13T09:00:39Z</time>
      </trkpt>
      <trkpt lat="47.1088" lon="-1.00998">
        <ele>99</ele>
        <time>2023-11-13T09:01:05Z</time>
      </trkpt>
      <trkpt lat="47.10921" lon="-1.01054">
        <ele>97</ele>
        <time>2023-11-13T09:02:19Z</time>
      </trkpt>
      <trkpt lat="47.10966" lon="-1.01103">
        <ele>96</ele>
        <time>2023-11-13T09:03:34Z</time>
      </trkpt>
      <trkpt lat="47.11062" lon="-1.01193">
        <ele>94</ele>
        <time>2023-11-13T09:06:06Z</time>
      </trkpt>
      <trkpt lat="47.11107" lon="-1.0124">
        <ele>92</ele>
        <time>2023-11-13T09:07:20Z</time>
      </trkpt>
      <trkpt lat="47.11122" lon="-1.01257">
        <ele>91</ele>
        <time>2023-11-13T09:07:45Z</time>
      </trkpt>
      <trkpt lat="47.11134" lon="-1.01277">
        <ele>91</ele>
        <time>2023-11-13T09:08:09Z</time>
      </trkpt>
      <trkpt lat="47.11144" lon="-1.013">
        <ele>90</ele>
        <time>2023-11-13T09:08:34Z</time>
      </trkpt>
      <trkpt lat="47.11159" lon="-1.0135">
        <ele>90</ele>
        <time>2023-11-13T09:09:23Z</time>
      </trkpt>
      <trkpt lat="47.11164" lon="-1.01405">
        <ele>91</ele>
        <time>2023-11-13T09:10:14Z</time>
      </trkpt>
      <trkpt lat="47.11182" lon="-1.01482">
        <ele>91</ele>
        <time>2023-11-13T09:11:28Z</time>
      </trkpt>
      <trkpt lat="47.1119" lon="-1.01507">
        <ele>91</ele>
        <time>2023-11-13T09:11:53Z</time>
      </trkpt>
      <trkpt lat="47.11203" lon="-1.01528">
        <ele>91</ele>
        <time>2023-11-13T09:12:19Z</time>
      </trkpt>
      <trkpt lat="47.11217" lon="-1.01546">
        <ele>91</ele>
        <time>2023-11-13T09:12:44Z</time>
      </trkpt>
      <trkpt lat="47.11234" lon="-1.01558">
        <ele>91</ele>
        <time>2023-11-13T09:13:09Z</time>
      </trkpt>
      <trkpt lat="47.11249" lon="-1.01574">
        <ele>90</ele>
        <time>2023-11-13T09:13:33Z</time>
      </trkpt>
      <trkpt lat="47.11266" lon="-1.01584">
        <ele>90</ele>
        <time>2023-11-13T09:13:58Z</time>
      </trkpt>
      <trkpt lat="47.11314" lon="-1.01624">
        <ele>90</ele>
        <time>2023-11-13T09:15:12Z</time>
      </trkpt>
      <trkpt lat="47.11327" lon="-1.01641">
        <ele>90</ele>
        <time>2023-11-13T09:15:35Z</time>
      </trkpt>
      <trkpt lat="47.11363" lon="-1.01705">
        <ele>90</ele>
        <time>2023-11-13T09:16:50Z</time>
      </trkpt>
      <trkpt lat="47.11389" lon="-1.01744">
        <ele>90</ele>
        <time>2023-11-13T09:17:40Z</time>
      </trkpt>
      <trkpt lat="47.1145" lon="-1.01808">
        <ele>90</ele>
        <time>2023-11-13T09:19:20Z</time>
      </trkpt>
      <trkpt lat="47.11479" lon="-1.01843">
        <ele>91</ele>
        <time>2023-11-13T09:20:10Z</time>
      </trkpt>
      <trkpt lat="47.11542" lon="-1.01941">
        <ele>93</ele>
        <time>2023-11-13T09:22:12Z</time>
      </trkpt>
      <trkpt lat="47.11552" lon="-1.01963">
        <ele>92</ele>
        <time>2023-11-13T09:22:36Z</time>
      </trkpt>
      <trkpt lat="47.11555" lon="-1.0199">
        <ele>92</ele>
        <time>2023-11-13T09:23:01Z</time>
      </trkpt>
      <trkpt lat="47.1157" lon="-1.0204">
        <ele>92</ele>
        <time>2023-11-13T09:23:51Z</time>
      </trkpt>
      <trkpt lat="47.11583" lon="-1.02059">
        <ele>92</ele>
        <time>2023-11-13T09:24:15Z</time>
      </trkpt>
      <trkpt lat="47.11614" lon="-1.02088">
        <ele>92</ele>
        <time>2023-11-13T09:25:04Z</time>
      </trkpt>
      <trkpt lat="47.11686" lon="-1.02119">
        <ele>94</ele>
        <time>2023-11-13T09:26:44Z</time>
      </trkpt>
      <trkpt lat="47.11702" lon="-1.02134">
        <ele>94</ele>
        <time>2023-11-13T09:27:10Z</time>
      </trkpt>
      <trkpt lat="47.1176" lon="-1.02202">
        <ele>94</ele>
        <time>2023-11-13T09:28:49Z</time>
      </trkpt>
      <trkpt lat="47.11777" lon="-1.02218">
        <ele>95</ele>
        <time>2023-11-13T09:29:16Z</time>
      </trkpt>
      <trkpt lat="47.1182" lon="-1.02271">
        <ele>95</ele>
        <time>2023-11-13T09:30:31Z</time>
      </trkpt>
      <trkpt lat="47.11895" lon="-1.02356">
        <ele>96</ele>
        <time>2023-11-13T09:32:37Z</time>
      </trkpt>
      <trkpt lat="47.11923" lon="-1.02392">
        <ele>96</ele>
        <time>2023-11-13T09:33:27Z</time>
      </trkpt>
      <trkpt lat="47.12028" lon="-1.02507">
        <ele>94</ele>
        <time>2023-11-13T09:36:21Z</time>
      </trkpt>
      <trkpt lat="47.12044" lon="-1.0252">
        <ele>94</ele>
        <time>2023-11-13T09:36:46Z</time>
      </trkpt>
      <trkpt lat="47.1208" lon="-1.0253">
        <ele>94</ele>
        <time>2023-11-13T09:37:35Z</time>
      </trkpt>
      <trkpt lat="47.12117" lon="-1.02531">
        <ele>94</ele>
        <time>2023-11-13T09:38:24Z</time>
      </trkpt>
      <trkpt lat="47.12135" lon="-1.02535">
        <ele>94</ele>
        <time>2023-11-13T09:38:48Z</time>
      </trkpt>
      <trkpt lat="47.12153" lon="-1.02543">
        <ele>94</ele>
        <time>2023-11-13T09:39:13Z</time>
      </trkpt>
      <trkpt lat="47.12169" lon="-1.02554">
        <ele>94</ele>
        <time>2023-11-13T09:39:37Z</time>
      </trkpt>
      <trkpt lat="47.12202" lon="-1.02583">
        <ele>95</ele>
        <time>2023-11-13T09:40:28Z</time>
      </trkpt>
      <trkpt lat="47.12217" lon="-1.026">
        <ele>95</ele>
        <time>2023-11-13T09:40:54Z</time>
      </trkpt>
      <trkpt lat="47.12283" lon="-1.02696">
        <ele>98</ele>
        <time>2023-11-13T09:42:57Z</time>
      </trkpt>
      <trkpt lat="47.12301" lon="-1.02708">
        <ele>99</ele>
        <time>2023-11-13T09:43:24Z</time>
      </trkpt>
      <trkpt lat="47.12318" lon="-1.02702">
        <ele>99</ele>
        <time>2023-11-13T09:43:47Z</time>
      </trkpt>
      <trkpt lat="47.12334" lon="-1.02716">
        <ele>100</ele>
        <time>2023-11-13T09:44:12Z</time>
      </trkpt>
      <trkpt lat="47.1234" lon="-1.02741">
        <ele>100</ele>
        <time>2023-11-13T09:44:36Z</time>
      </trkpt>
      <trkpt lat="47.12351" lon="-1.02763">
        <ele>101</ele>
        <time>2023-11-13T09:45:01Z</time>
      </trkpt>
      <trkpt lat="47.12367" lon="-1.02775">
        <ele>101</ele>
        <time>2023-11-13T09:45:25Z</time>
      </trkpt>
      <trkpt lat="47.12438" lon="-1.02745">
        <ele>104</ele>
        <time>2023-11-13T09:47:03Z</time>
      </trkpt>
      <trkpt lat="47.12454" lon="-1.02732">
        <ele>104</ele>
        <time>2023-11-13T09:47:28Z</time>
      </trkpt>
      <trkpt lat="47.12507" lon="-1.02654">
        <ele>105</ele>
        <time>2023-11-13T09:49:08Z</time>
      </trkpt>
      <trkpt lat="47.12566" lon="-1.0259">
        <ele>105</ele>
        <time>2023-11-13T09:50:46Z</time>
      </trkpt>
      <trkpt lat="47.1266" lon="-1.025">
        <ele>106</ele>
        <time>2023-11-13T09:53:15Z</time>
      </trkpt>
      <trkpt lat="47.12677" lon="-1.02491">
        <ele>106</ele>
        <time>2023-11-13T09:53:40Z</time>
      </trkpt>
      <trkpt lat="47.12689" lon="-1.02511">
        <ele>105</ele>
        <time>2023-11-13T09:54:04Z</time>
      </trkpt>
      <trkpt lat="47.12747" lon="-1.02649">
        <ele>104</ele>
        <time>2023-11-13T09:56:31Z</time>
      </trkpt>
      <trkpt lat="47.12772" lon="-1.02725">
        <ele>104</ele>
        <time>2023-11-13T09:57:48Z</time>
      </trkpt>
      <trkpt lat="47.12783" lon="-1.02806">
        <ele>104</ele>
        <time>2023-11-13T09:59:03Z</time>
      </trkpt>
      <trkpt lat="47.12797" lon="-1.02824">
        <ele>104</ele>
        <time>2023-11-13T09:59:28Z</time>
      </trkpt>
      <trkpt lat="47.12814" lon="-1.02834">
        <ele>103</ele>
        <time>2023-11-13T09:59:52Z</time>
      </trkpt>
      <trkpt lat="47.1283" lon="-1.02847">
        <ele>103</ele>
        <time>2023-11-13T10:00:16Z</time>
      </trkpt>
      <trkpt lat="47.12849" lon="-1.02855">
        <ele>102</ele>
        <time>2023-11-13T10:00:43Z</time>
      </trkpt>
      <trkpt lat="47.12864" lon="-1.02872">
        <ele>102</ele>
        <time>2023-11-13T10:01:08Z</time>
      </trkpt>
      <trkpt lat="47.1293" lon="-1.0292">
        <ele>101</ele>
        <time>2023-11-13T10:02:46Z</time>
      </trkpt>
      <trkpt lat="47.12948" lon="-1.02926">
        <ele>100</ele>
        <time>2023-11-13T10:03:11Z</time>
      </trkpt>
      <trkpt lat="47.12967" lon="-1.02926">
        <ele>99</ele>
        <time>2023-11-13T10:03:36Z</time>
      </trkpt>
      <trkpt lat="47.12985" lon="-1.02932">
        <ele>98</ele>
        <time>2023-11-13T10:04:01Z</time>
      </trkpt>
      <trkpt lat="47.13023" lon="-1.02927">
        <ele>97</ele>
        <time>2023-11-13T10:04:52Z</time>
      </trkpt>
      <trkpt lat="47.13041" lon="-1.02922">
        <ele>97</ele>
        <time>2023-11-13T10:05:16Z</time>
      </trkpt>
      <trkpt lat="47.13075" lon="-1.029">
        <ele>96</ele>
        <time>2023-11-13T10:06:06Z</time>
      </trkpt>
      <trkpt lat="47.13112" lon="-1.02881">
        <ele>95</ele>
        <time>2023-11-13T10:06:58Z</time>
      </trkpt>
      <trkpt lat="47.13166" lon="-1.02858">
        <ele>94</ele>
        <time>2023-11-13T10:08:13Z</time>
      </trkpt>
      <trkpt lat="47.13202" lon="-1.02846">
        <ele>94</ele>
        <time>2023-11-13T10:09:02Z</time>
      </trkpt>
      <trkpt lat="47.1322" lon="-1.02842">
        <ele>94</ele>
        <time>2023-11-13T10:09:27Z</time>
      </trkpt>
      <trkpt lat="47.13258" lon="-1.02839">
        <ele>94</ele>
        <time>2023-11-13T10:10:18Z</time>
      </trkpt>
      <trkpt lat="47.13314" lon="-1.02827">
        <ele>95</ele>
        <time>2023-11-13T10:11:33Z</time>
      </trkpt>
      <trkpt lat="47.13333" lon="-1.0283">
        <ele>95</ele>
        <time>2023-11-13T10:11:59Z</time>
      </trkpt>
      <trkpt lat="47.13371" lon="-1.02828">
        <ele>95</ele>
        <time>2023-11-13T10:12:49Z</time>
      </trkpt>
      <trkpt lat="47.13389" lon="-1.02823">
        <ele>95</ele>
        <time>2023-11-13T10:13:14Z</time>
      </trkpt>
      <trkpt lat="47.13444" lon="-1.02795">
        <ele>96</ele>
        <time>2023-11-13T10:14:31Z</time>
      </trkpt>
      <trkpt lat="47.13481" lon="-1.02784">
        <ele>97</ele>
        <time>2023-11-13T10:15:22Z</time>
      </trkpt>
      <trkpt lat="47.13517" lon="-1.0279">
        <ele>98</ele>
        <time>2023-11-13T10:16:10Z</time>
      </trkpt>
      <trkpt lat="47.13536" lon="-1.02789">
        <ele>98</ele>
        <time>2023-11-13T10:16:35Z</time>
      </trkpt>
      <trkpt lat="47.13554" lon="-1.02783">
        <ele>98</ele>
        <time>2023-11-13T10:17:00Z</time>
      </trkpt>
      <trkpt lat="47.13572" lon="-1.02774">
        <ele>98</ele>
        <time>2023-11-13T10:17:25Z</time>
      </trkpt>
      <trkpt lat="47.13589" lon="-1.02762">
        <ele>98</ele>
        <time>2023-11-13T10:17:51Z</time>
      </trkpt>
      <trkpt lat="47.13635" lon="-1.02716">
        <ele>97</ele>
        <time>2023-11-13T10:19:05Z</time>
      </trkpt>
      <trkpt lat="47.13651" lon="-1.02704">
        <ele>97</ele>
        <time>2023-11-13T10:19:29Z</time>
      </trkpt>
      <trkpt lat="47.13668" lon="-1.02696">
        <ele>97</ele>
        <time>2023-11-13T10:19:53Z</time>
      </trkpt>
      <trkpt lat="47.13724" lon="-1.02682">
        <ele>96</ele>
        <time>2023-11-13T10:21:08Z</time>
      </trkpt>
      <trkpt lat="47.1376" lon="-1.02668">
        <ele>95</ele>
        <time>2023-11-13T10:21:58Z</time>
      </trkpt>
      <trkpt lat="47.13864" lon="-1.02608">
        <ele>90</ele>
        <time>2023-11-13T10:24:27Z</time>
      </trkpt>
      <trkpt lat="47.13915" lon="-1.02583">
        <ele>89</ele>
        <time>2023-11-13T10:25:39Z</time>
      </trkpt>
      <trkpt lat="47.13969" lon="-1.02553">
        <ele>90</ele>
        <time>2023-11-13T10:26:56Z</time>
      </trkpt>
      <trkpt lat="47.13988" lon="-1.02546">
        <ele>90</ele>
        <time>2023-11-13T10:27:22Z</time>
      </trkpt>
      <trkpt lat="47.14058" lon="-1.02507">
        <ele>90</ele>
        <time>2023-11-13T10:29:02Z</time>
      </trkpt>
      <trkpt lat="47.1411" lon="-1.02482">
        <ele>89</ele>
        <time>2023-11-13T10:30:15Z</time>
      </trkpt>
      <trkpt lat="47.14181" lon="-1.02442">
        <ele>85</ele>
        <time>2023-11-13T10:31:57Z</time>
      </trkpt>
      <trkpt lat="47.14214" lon="-1.02419">
        <ele>83</ele>
        <time>2023-11-13T10:32:45Z</time>
      </trkpt>
      <trkpt lat="47.1423" lon="-1.02405">
        <ele>82</ele>
        <time>2023-11-13T10:33:10Z</time>
      </trkpt>
      <trkpt lat="47.14308" lon="-1.0233">
        <ele>76</ele>
        <time>2023-11-13T10:35:15Z</time>
      </trkpt>
      <trkpt lat="47.14335" lon="-1.02293">
        <ele>73</ele>
        <time>2023-11-13T10:36:04Z</time>
      </trkpt>
      <trkpt lat="47.14347" lon="-1.02271">
        <ele>72</ele>
        <time>2023-11-13T10:36:29Z</time>
      </trkpt>
      <trkpt lat="47.14356" lon="-1.02247">
        <ele>72</ele>
        <time>2023-11-13T10:36:54Z</time>
      </trkpt>
      <trkpt lat="47.1437" lon="-1.02231">
        <ele>72</ele>
        <time>2023-11-13T10:37:18Z</time>
      </trkpt>
      <trkpt lat="47.14388" lon="-1.02223">
        <ele>73</ele>
        <time>2023-11-13T10:37:43Z</time>
      </trkpt>
      <trkpt lat="47.14404" lon="-1.0221">
        <ele>73</ele>
        <time>2023-11-13T10:38:07Z</time>
      </trkpt>
      <trkpt lat="47.14418" lon="-1.02194">
        <ele>74</ele>
        <time>2023-11-13T10:38:31Z</time>
      </trkpt>
      <trkpt lat="47.14429" lon="-1.02171">
        <ele>76</ele>
        <time>2023-11-13T10:38:57Z</time>
      </trkpt>
      <trkpt lat="47.14436" lon="-1.02146">
        <ele>76</ele>
        <time>2023-11-13T10:39:21Z</time>
      </trkpt>
      <trkpt lat="47.14437" lon="-1.02091">
        <ele>78</ele>
        <time>2023-11-13T10:40:11Z</time>
      </trkpt>
      <trkpt lat="47.14444" lon="-1.02067">
        <ele>79</ele>
        <time>2023-11-13T10:40:35Z</time>
      </trkpt>
      <trkpt lat="47.14479" lon="-1.02002">
        <ele>82</ele>
        <time>2023-11-13T10:41:50Z</time>
      </trkpt>
      <trkpt lat="47.14495" lon="-1.01984">
        <ele>82</ele>
        <time>2023-11-13T10:42:17Z</time>
      </trkpt>
      <trkpt lat="47.14512" lon="-1.01976">
        <ele>82</ele>
        <time>2023-11-13T10:42:41Z</time>
      </trkpt>
      <trkpt lat="47.1453" lon="-1.01976">
        <ele>82</ele>
        <time>2023-11-13T10:43:05Z</time>
      </trkpt>
      <trkpt lat="47.14568" lon="-1.01977">
        <ele>81</ele>
        <time>2023-11-13T10:43:55Z</time>
      </trkpt>
      <trkpt lat="47.14585" lon="-1.01983">
        <ele>81</ele>
        <time>2023-11-13T10:44:19Z</time>
      </trkpt>
      <trkpt lat="47.14622" lon="-1.01986">
        <ele>81</ele>
        <time>2023-11-13T10:45:08Z</time>
      </trkpt>
      <trkpt lat="47.14639" lon="-1.01977">
        <ele>81</ele>
        <time>2023-11-13T10:45:32Z</time>
      </trkpt>
      <trkpt lat="47.14732" lon="-1.01993">
        <ele>84</ele>
        <time>2023-11-13T10:47:37Z</time>
      </trkpt>
      <trkpt lat="47.14751" lon="-1.01989">
        <ele>85</ele>
        <time>2023-11-13T10:48:03Z</time>
      </trkpt>
      <trkpt lat="47.14824" lon="-1.01963">
        <ele>88</ele>
        <time>2023-11-13T10:49:43Z</time>
      </trkpt>
      <trkpt lat="47.14894" lon="-1.01928">
        <ele>90</ele>
        <time>2023-11-13T10:51:22Z</time>
      </trkpt>
      <trkpt lat="47.14947" lon="-1.01909">
        <ele>92</ele>
        <time>2023-11-13T10:52:35Z</time>
      </trkpt>
      <trkpt lat="47.15002" lon="-1.01894">
        <ele>94</ele>
        <time>2023-11-13T10:53:49Z</time>
      </trkpt>
      <trkpt lat="47.1504" lon="-1.0189">
        <ele>95</ele>
        <time>2023-11-13T10:54:40Z</time>
      </trkpt>
      <trkpt lat="47.15112" lon="-1.01868">
        <ele>98</ele>
        <time>2023-11-13T10:56:18Z</time>
      </trkpt>
      <trkpt lat="47.15149" lon="-1.01869">
        <ele>99</ele>
        <time>2023-11-13T10:57:08Z</time>
      </trkpt>
      <trkpt lat="47.15165" lon="-1.01857">
        <ele>100</ele>
        <time>2023-11-13T10:57:32Z</time>
      </trkpt>
      <trkpt lat="47.15183" lon="-1.01855">
        <ele>100</ele>
        <time>2023-11-13T10:57:56Z</time>
      </trkpt>
      <trkpt lat="47.15197" lon="-1.01835">
        <ele>101</ele>
        <time>2023-11-13T10:58:22Z</time>
      </trkpt>
      <trkpt lat="47.15206" lon="-1.01811">
        <ele>101</ele>
        <time>2023-11-13T10:58:47Z</time>
      </trkpt>
      <trkpt lat="47.15224" lon="-1.01818">
        <ele>101</ele>
        <time>2023-11-13T10:59:11Z</time>
      </trkpt>
      <trkpt lat="47.15242" lon="-1.0182">
        <ele>101</ele>
        <time>2023-11-13T10:59:36Z</time>
      </trkpt>
      <trkpt lat="47.15247" lon="-1.01846">
        <ele>101</ele>
        <time>2023-11-13T11:00:00Z</time>
      </trkpt>
      <trkpt lat="47.15236" lon="-1.01824">
        <ele>101</ele>
        <time>2023-11-13T11:00:25Z</time>
      </trkpt>
      <trkpt lat="47.15218" lon="-1.01818">
        <ele>101</ele>
        <time>2023-11-13T11:00:49Z</time>
      </trkpt>
      <trkpt lat="47.1522" lon="-1.0179">
        <ele>102</ele>
        <time>2023-11-13T11:01:15Z</time>
      </trkpt>
      <trkpt lat="47.15203" lon="-1.01783">
        <ele>102</ele>
        <time>2023-11-13T11:01:39Z</time>
      </trkpt>
      <trkpt lat="47.15188" lon="-1.01767">
        <ele>102</ele>
        <time>2023-11-13T11:02:03Z</time>
      </trkpt>
      <trkpt lat="47.15171" lon="-1.01718">
        <ele>102</ele>
        <time>2023-11-13T11:02:53Z</time>
      </trkpt>
      <trkpt lat="47.1516" lon="-1.01667">
        <ele>103</ele>
        <time>2023-11-13T11:03:42Z</time>
      </trkpt>
      <trkpt lat="47.15128" lon="-1.0157">
        <ele>102</ele>
        <time>2023-11-13T11:05:20Z</time>
      </trkpt>
      <trkpt lat="47.15109" lon="-1.01569">
        <ele>101</ele>
        <time>2023-11-13T11:05:45Z</time>
      </trkpt>
      <trkpt lat="47.15091" lon="-1.01573">
        <ele>101</ele>
        <time>2023-11-13T11:06:09Z</time>
      </trkpt>
      <trkpt lat="47.15035" lon="-1.01596">
        <ele>98</ele>
        <time>2023-11-13T11:07:27Z</time>
      </trkpt>
      <trkpt lat="47.1498" lon="-1.01609">
        <ele>95</ele>
        <time>2023-11-13T11:08:41Z</time>
      </trkpt>
      <trkpt lat="47.14943" lon="-1.01614">
        <ele>93</ele>
        <time>2023-11-13T11:09:31Z</time>
      </trkpt>
      <trkpt lat="47.14925" lon="-1.01614">
        <ele>91</ele>
        <time>2023-11-13T11:09:55Z</time>
      </trkpt>
      <trkpt lat="47.14907" lon="-1.01606">
        <ele>90</ele>
        <time>2023-11-13T11:10:20Z</time>
      </trkpt>
      <trkpt lat="47.14878" lon="-1.01571">
        <ele>88</ele>
        <time>2023-11-13T11:11:10Z</time>
      </trkpt>
      <trkpt lat="47.14841" lon="-1.01511">
        <ele>88</ele>
        <time>2023-11-13T11:12:23Z</time>
      </trkpt>
      <trkpt lat="47.14784" lon="-1.014">
        <ele>91</ele>
        <time>2023-11-13T11:14:30Z</time>
      </trkpt>
      <trkpt lat="47.14746" lon="-1.0134">
        <ele>94</ele>
        <time>2023-11-13T11:15:44Z</time>
      </trkpt>
      <trkpt lat="47.1462" lon="-1.01176">
        <ele>96</ele>
        <time>2023-11-13T11:19:29Z</time>
      </trkpt>
      <trkpt lat="47.14626" lon="-1.01151">
        <ele>96</ele>
        <time>2023-11-13T11:19:53Z</time>
      </trkpt>
      <trkpt lat="47.14662" lon="-1.01088">
        <ele>97</ele>
        <time>2023-11-13T11:21:07Z</time>
      </trkpt>
      <trkpt lat="47.14715" lon="-1.01011">
        <ele>98</ele>
        <time>2023-11-13T11:22:47Z</time>
      </trkpt>
      <trkpt lat="47.1474" lon="-1.0097">
        <ele>98</ele>
        <time>2023-11-13T11:23:37Z</time>
      </trkpt>
      <trkpt lat="47.14736" lon="-1.00944">
        <ele>99</ele>
        <time>2023-11-13T11:24:01Z</time>
      </trkpt>
      <trkpt lat="47.1472" lon="-1.00931">
        <ele>98</ele>
        <time>2023-11-13T11:24:25Z</time>
      </trkpt>
      <trkpt lat="47.14707" lon="-1.00911">
        <ele>99</ele>
        <time>2023-11-13T11:24:51Z</time>
      </trkpt>
      <trkpt lat="47.14677" lon="-1.00877">
        <ele>99</ele>
        <time>2023-11-13T11:25:41Z</time>
      </trkpt>
      <trkpt lat="47.14664" lon="-1.00857">
        <ele>99</ele>
        <time>2023-11-13T11:26:06Z</time>
      </trkpt>
      <trkpt lat="47.14616" lon="-1.00813">
        <ele>99</ele>
        <time>2023-11-13T11:27:22Z</time>
      </trkpt>
      <trkpt lat="47.14599" lon="-1.00801">
        <ele>99</ele>
        <time>2023-11-13T11:27:47Z</time>
      </trkpt>
      <trkpt lat="47.14581" lon="-1.00801">
        <ele>99</ele>
        <time>2023-11-13T11:28:11Z</time>
      </trkpt>
      <trkpt lat="47.14562" lon="-1.00797">
        <ele>99</ele>
        <time>2023-11-13T11:28:36Z</time>
      </trkpt>
      <trkpt lat="47.14545" lon="-1.00788">
        <ele>99</ele>
        <time>2023-11-13T11:29:01Z</time>
      </trkpt>
      <trkpt lat="47.14532" lon="-1.00808">
        <ele>98</ele>
        <time>2023-11-13T11:29:26Z</time>
      </trkpt>
      <trkpt lat="47.14508" lon="-1.00882">
        <ele>97</ele>
        <time>2023-11-13T11:30:40Z</time>
      </trkpt>
      <trkpt lat="47.14489" lon="-1.00884">
        <ele>96</ele>
        <time>2023-11-13T11:31:05Z</time>
      </trkpt>
      <trkpt lat="47.1447" lon="-1.00879">
        <ele>96</ele>
        <time>2023-11-13T11:31:31Z</time>
      </trkpt>
      <trkpt lat="47.1437" lon="-1.00804">
        <ele>96</ele>
        <time>2023-11-13T11:34:01Z</time>
      </trkpt>
      <trkpt lat="47.14354" lon="-1.0079">
        <ele>95</ele>
        <time>2023-11-13T11:34:26Z</time>
      </trkpt>
      <trkpt lat="47.14326" lon="-1.00756">
        <ele>94</ele>
        <time>2023-11-13T11:35:14Z</time>
      </trkpt>
      <trkpt lat="47.1432" lon="-1.0073">
        <ele>93</ele>
        <time>2023-11-13T11:35:39Z</time>
      </trkpt>
      <trkpt lat="47.14326" lon="-1.00704">
        <ele>93</ele>
        <time>2023-11-13T11:36:04Z</time>
      </trkpt>
      <trkpt lat="47.14328" lon="-1.00678">
        <ele>93</ele>
        <time>2023-11-13T11:36:28Z</time>
      </trkpt>
      <trkpt lat="47.14325" lon="-1.00651">
        <ele>92</ele>
        <time>2023-11-13T11:36:53Z</time>
      </trkpt>
      <trkpt lat="47.14329" lon="-1.00597">
        <ele>92</ele>
        <time>2023-11-13T11:37:42Z</time>
      </trkpt>
      <trkpt lat="47.14326" lon="-1.00571">
        <ele>92</ele>
        <time>2023-11-13T11:38:06Z</time>
      </trkpt>
      <trkpt lat="47.14319" lon="-1.00545">
        <ele>91</ele>
        <time>2023-11-13T11:38:31Z</time>
      </trkpt>
      <trkpt lat="47.14308" lon="-1.00522">
        <ele>91</ele>
        <time>2023-11-13T11:38:57Z</time>
      </trkpt>
      <trkpt lat="47.14256" lon="-1.00442">
        <ele>89</ele>
        <time>2023-11-13T11:40:37Z</time>
      </trkpt>
      <trkpt lat="47.14233" lon="-1.00399">
        <ele>88</ele>
        <time>2023-11-13T11:41:27Z</time>
      </trkpt>
      <trkpt lat="47.14213" lon="-1.00353">
        <ele>88</ele>
        <time>2023-11-13T11:42:17Z</time>
      </trkpt>
      <trkpt lat="47.14207" lon="-1.00327">
        <ele>87</ele>
        <time>2023-11-13T11:42:41Z</time>
      </trkpt>
      <trkpt lat="47.14207" lon="-1.00299">
        <ele>87</ele>
        <time>2023-11-13T11:43:07Z</time>
      </trkpt>
      <trkpt lat="47.14217" lon="-1.00276">
        <ele>88</ele>
        <time>2023-11-13T11:43:32Z</time>
      </trkpt>
      <trkpt lat="47.14261" lon="-1.00225">
        <ele>89</ele>
        <time>2023-11-13T11:44:46Z</time>
      </trkpt>
      <trkpt lat="47.14288" lon="-1.00188">
        <ele>89</ele>
        <time>2023-11-13T11:45:36Z</time>
      </trkpt>
      <trkpt lat="47.14318" lon="-1.00155">
        <ele>90</ele>
        <time>2023-11-13T11:46:26Z</time>
      </trkpt>
      <trkpt lat="47.14352" lon="-1.00134">
        <ele>91</ele>
        <time>2023-11-13T11:47:15Z</time>
      </trkpt>
      <trkpt lat="47.14379" lon="-1.00098">
        <ele>92</ele>
        <time>2023-11-13T11:48:04Z</time>
      </trkpt>
      <trkpt lat="47.14397" lon="-1.00145">
        <ele>92</ele>
        <time>2023-11-13T11:48:53Z</time>
      </trkpt>
      <trkpt lat="47.14409" lon="-1.00165">
        <ele>93</ele>
        <time>2023-11-13T11:49:17Z</time>
      </trkpt>
      <trkpt lat="47.14404" lon="-1.00191">
        <ele>93</ele>
        <time>2023-11-13T11:49:41Z</time>
      </trkpt>
      <trkpt lat="47.14399" lon="-1.00157">
        <ele>92</ele>
        <time>2023-11-13T11:50:13Z</time>
      </trkpt>
      <trkpt lat="47.14382" lon="-1.00109">
        <ele>92</ele>
        <time>2023-11-13T11:51:02Z</time>
      </trkpt>
      <trkpt lat="47.1439" lon="-1.00085">
        <ele>92</ele>
        <time>2023-11-13T11:51:26Z</time>
      </trkpt>
      <trkpt lat="47.14402" lon="-1.00065">
        <ele>92</ele>
        <time>2023-11-13T11:51:50Z</time>
      </trkpt>
      <trkpt lat="47.14417" lon="-1.00049">
        <ele>93</ele>
        <time>2023-11-13T11:52:15Z</time>
      </trkpt>
      <trkpt lat="47.14429" lon="-1.00029">
        <ele>94</ele>
        <time>2023-11-13T11:52:39Z</time>
      </trkpt>
      <trkpt lat="47.14443" lon="-1.00011">
        <ele>94</ele>
        <time>2023-11-13T11:53:04Z</time>
      </trkpt>
      <trkpt lat="47.14459" lon="-0.99998">
        <ele>95</ele>
        <time>2023-11-13T11:53:29Z</time>
      </trkpt>
      <trkpt lat="47.14472" lon="-0.99978">
        <ele>96</ele>
        <time>2023-11-13T11:53:54Z</time>
      </trkpt>
      <trkpt lat="47.14483" lon="-0.99925">
        <ele>97</ele>
        <time>2023-11-13T11:54:44Z</time>
      </trkpt>
      <trkpt lat="47.14494" lon="-0.99904">
        <ele>98</ele>
        <time>2023-11-13T11:55:08Z</time>
      </trkpt>
      <trkpt lat="47.14512" lon="-0.99897">
        <ele>98</ele>
        <time>2023-11-13T11:55:33Z</time>
      </trkpt>
      <trkpt lat="47.14522" lon="-0.99875">
        <ele>98</ele>
        <time>2023-11-13T11:55:57Z</time>
      </trkpt>
      <trkpt lat="47.14536" lon="-0.99856">
        <ele>98</ele>
        <time>2023-11-13T11:56:22Z</time>
      </trkpt>
      <trkpt lat="47.14545" lon="-0.99833">
        <ele>98</ele>
        <time>2023-11-13T11:56:46Z</time>
      </trkpt>
      <trkpt lat="47.14557" lon="-0.99812">
        <ele>99</ele>
        <time>2023-11-13T11:57:11Z</time>
      </trkpt>
      <trkpt lat="47.1457" lon="-0.99792">
        <ele>99</ele>
        <time>2023-11-13T11:57:36Z</time>
      </trkpt>
      <trkpt lat="47.14585" lon="-0.99777">
        <ele>100</ele>
        <time>2023-11-13T11:58:01Z</time>
      </trkpt>
      <trkpt lat="47.14601" lon="-0.99786">
        <ele>100</ele>
        <time>2023-11-13T11:58:23Z</time>
      </trkpt>
      <trkpt lat="47.14698" lon="-0.99865">
        <ele>105</ele>
        <time>2023-11-13T12:00:51Z</time>
      </trkpt>
      <trkpt lat="47.14729" lon="-0.99893">
        <ele>106</ele>
        <time>2023-11-13T12:01:40Z</time>
      </trkpt>
      <trkpt lat="47.14762" lon="-0.99918">
        <ele>107</ele>
        <time>2023-11-13T12:02:30Z</time>
      </trkpt>
      <trkpt lat="47.14779" lon="-0.99928">
        <ele>107</ele>
        <time>2023-11-13T12:02:54Z</time>
      </trkpt>
      <trkpt lat="47.14795" lon="-0.99914">
        <ele>107</ele>
        <time>2023-11-13T12:03:19Z</time>
      </trkpt>
      <trkpt lat="47.14805" lon="-0.99861">
        <ele>106</ele>
        <time>2023-11-13T12:04:09Z</time>
      </trkpt>
      <trkpt lat="47.14819" lon="-0.9981">
        <ele>106</ele>
        <time>2023-11-13T12:04:59Z</time>
      </trkpt>
      <trkpt lat="47.14838" lon="-0.99806">
        <ele>106</ele>
        <time>2023-11-13T12:05:24Z</time>
      </trkpt>
      <trkpt lat="47.14886" lon="-0.99851">
        <ele>105</ele>
        <time>2023-11-13T12:06:40Z</time>
      </trkpt>
      <trkpt lat="47.14902" lon="-0.99863">
        <ele>104</ele>
        <time>2023-11-13T12:07:04Z</time>
      </trkpt>
      <trkpt lat="47.14919" lon="-0.99871">
        <ele>104</ele>
        <time>2023-11-13T12:07:28Z</time>
      </trkpt>
      <trkpt lat="47.14992" lon="-0.99894">
        <ele>105</ele>
        <time>2023-11-13T12:09:08Z</time>
      </trkpt>
      <trkpt lat="47.15007" lon="-0.9988">
        <ele>105</ele>
        <time>2023-11-13T12:09:31Z</time>
      </trkpt>
      <trkpt lat="47.15019" lon="-0.9986">
        <ele>105</ele>
        <time>2023-11-13T12:09:56Z</time>
      </trkpt>
      <trkpt lat="47.15061" lon="-0.99768">
        <ele>104</ele>
        <time>2023-11-13T12:11:36Z</time>
      </trkpt>
      <trkpt lat="47.1512" lon="-0.99661">
        <ele>107</ele>
        <time>2023-11-13T12:13:41Z</time>
      </trkpt>
      <trkpt lat="47.15141" lon="-0.99617">
        <ele>107</ele>
        <time>2023-11-13T12:14:30Z</time>
      </trkpt>
      <trkpt lat="47.15154" lon="-0.99597">
        <ele>107</ele>
        <time>2023-11-13T12:14:55Z</time>
      </trkpt>
      <trkpt lat="47.15195" lon="-0.99544">
        <ele>107</ele>
        <time>2023-11-13T12:16:08Z</time>
      </trkpt>
      <trkpt lat="47.15267" lon="-0.99521">
        <ele>108</ele>
        <time>2023-11-13T12:17:46Z</time>
      </trkpt>
      <trkpt lat="47.15279" lon="-0.99501">
        <ele>108</ele>
        <time>2023-11-13T12:18:10Z</time>
      </trkpt>
      <trkpt lat="47.1529" lon="-0.99449">
        <ele>108</ele>
        <time>2023-11-13T12:19:00Z</time>
      </trkpt>
      <trkpt lat="47.15305" lon="-0.99399">
        <ele>108</ele>
        <time>2023-11-13T12:19:49Z</time>
      </trkpt>
      <trkpt lat="47.15323" lon="-0.99397">
        <ele>109</ele>
        <time>2023-11-13T12:20:13Z</time>
      </trkpt>
      <trkpt lat="47.15342" lon="-0.994">
        <ele>109</ele>
        <time>2023-11-13T12:20:39Z</time>
      </trkpt>
      <trkpt lat="47.15379" lon="-0.99401">
        <ele>109</ele>
        <time>2023-11-13T12:21:28Z</time>
      </trkpt>
      <trkpt lat="47.15435" lon="-0.99396">
        <ele>109</ele>
        <time>2023-11-13T12:22:43Z</time>
      </trkpt>
      <trkpt lat="47.15472" lon="-0.994">
        <ele>108</ele>
        <time>2023-11-13T12:23:33Z</time>
      </trkpt>
      <trkpt lat="47.15547" lon="-0.99413">
        <ele>106</ele>
        <time>2023-11-13T12:25:14Z</time>
      </trkpt>
      <trkpt lat="47.15602" lon="-0.99431">
        <ele>105</ele>
        <time>2023-11-13T12:26:29Z</time>
      </trkpt>
      <trkpt lat="47.15621" lon="-0.9943">
        <ele>105</ele>
        <time>2023-11-13T12:26:54Z</time>
      </trkpt>
      <trkpt lat="47.15658" lon="-0.99433">
        <ele>104</ele>
        <time>2023-11-13T12:27:44Z</time>
      </trkpt>
      <trkpt lat="47.15676" lon="-0.99432">
        <ele>104</ele>
        <time>2023-11-13T12:28:08Z</time>
      </trkpt>
      <trkpt lat="47.15712" lon="-0.99425">
        <ele>103</ele>
        <time>2023-11-13T12:28:56Z</time>
      </trkpt>
      <trkpt lat="47.15723" lon="-0.99404">
        <ele>102</ele>
        <time>2023-11-13T12:29:20Z</time>
      </trkpt>
      <trkpt lat="47.1571" lon="-0.99383">
        <ele>102</ele>
        <time>2023-11-13T12:29:46Z</time>
      </trkpt>
      <trkpt lat="47.15701" lon="-0.99358">
        <ele>102</ele>
        <time>2023-11-13T12:30:12Z</time>
      </trkpt>
      <trkpt lat="47.157" lon="-0.99329">
        <ele>101</ele>
        <time>2023-11-13T12:30:38Z</time>
      </trkpt>
      <trkpt lat="47.15709" lon="-0.99275">
        <ele>101</ele>
        <time>2023-11-13T12:31:28Z</time>
      </trkpt>
      <trkpt lat="47.15706" lon="-0.99247">
        <ele>102</ele>
        <time>2023-11-13T12:31:54Z</time>
      </trkpt>
      <trkpt lat="47.15696" lon="-0.99224">
        <ele>102</ele>
        <time>2023-11-13T12:32:19Z</time>
      </trkpt>
      <trkpt lat="47.15663" lon="-0.99127">
        <ele>101</ele>
        <time>2023-11-13T12:33:57Z</time>
      </trkpt>
      <trkpt lat="47.15598" lon="-0.98902">
        <ele>100</ele>
        <time>2023-11-13T12:37:39Z</time>
      </trkpt>
      <trkpt lat="47.15581" lon="-0.98825">
        <ele>99</ele>
        <time>2023-11-13T12:38:53Z</time>
      </trkpt>
      <trkpt lat="47.15563" lon="-0.9869">
        <ele>99</ele>
        <time>2023-11-13T12:40:57Z</time>
      </trkpt>
      <trkpt lat="47.15564" lon="-0.98635">
        <ele>98</ele>
        <time>2023-11-13T12:41:47Z</time>
      </trkpt>
      <trkpt lat="47.15575" lon="-0.98583">
        <ele>97</ele>
        <time>2023-11-13T12:42:37Z</time>
      </trkpt>
      <trkpt lat="47.15599" lon="-0.98509">
        <ele>95</ele>
        <time>2023-11-13T12:43:51Z</time>
      </trkpt>
      <trkpt lat="47.15609" lon="-0.98485">
        <ele>94</ele>
        <time>2023-11-13T12:44:17Z</time>
      </trkpt>
      <trkpt lat="47.15639" lon="-0.98383">
        <ele>92</ele>
        <time>2023-11-13T12:45:58Z</time>
      </trkpt>
      <trkpt lat="47.15656" lon="-0.9822">
        <ele>95</ele>
        <time>2023-11-13T12:48:27Z</time>
      </trkpt>
      <trkpt lat="47.15657" lon="-0.98192">
        <ele>96</ele>
        <time>2023-11-13T12:48:53Z</time>
      </trkpt>
      <trkpt lat="47.15642" lon="-0.9803">
        <ele>100</ele>
        <time>2023-11-13T12:51:21Z</time>
      </trkpt>
      <trkpt lat="47.15638" lon="-0.97948">
        <ele>102</ele>
        <time>2023-11-13T12:52:36Z</time>
      </trkpt>
      <trkpt lat="47.15655" lon="-0.97702">
        <ele>109</ele>
        <time>2023-11-13T12:56:20Z</time>
      </trkpt>
      <trkpt lat="47.1566" lon="-0.97594">
        <ele>111</ele>
        <time>2023-11-13T12:57:58Z</time>
      </trkpt>
      <trkpt lat="47.1566" lon="-0.97567">
        <ele>111</ele>
        <time>2023-11-13T12:58:23Z</time>
      </trkpt>
      <trkpt lat="47.15651" lon="-0.97515">
        <ele>111</ele>
        <time>2023-11-13T12:59:11Z</time>
      </trkpt>
      <trkpt lat="47.15633" lon="-0.97466">
        <ele>110</ele>
        <time>2023-11-13T13:00:02Z</time>
      </trkpt>
      <trkpt lat="47.15627" lon="-0.97441">
        <ele>110</ele>
        <time>2023-11-13T13:00:26Z</time>
      </trkpt>
      <trkpt lat="47.15582" lon="-0.97321">
        <ele>111</ele>
        <time>2023-11-13T13:02:30Z</time>
      </trkpt>
      <trkpt lat="47.1557" lon="-0.9727">
        <ele>114</ele>
        <time>2023-11-13T13:03:19Z</time>
      </trkpt>
      <trkpt lat="47.15556" lon="-0.97254">
        <ele>116</ele>
        <time>2023-11-13T13:03:43Z</time>
      </trkpt>
      <trkpt lat="47.15541" lon="-0.9727">
        <ele>115</ele>
        <time>2023-11-13T13:04:08Z</time>
      </trkpt>
      <trkpt lat="47.15532" lon="-0.97294">
        <ele>114</ele>
        <time>2023-11-13T13:04:33Z</time>
      </trkpt>
      <trkpt lat="47.15483" lon="-0.97374">
        <ele>111</ele>
        <time>2023-11-13T13:06:10Z</time>
      </trkpt>
      <trkpt lat="47.1546" lon="-0.97417">
        <ele>109</ele>
        <time>2023-11-13T13:07:00Z</time>
      </trkpt>
      <trkpt lat="47.15432" lon="-0.97488">
        <ele>107</ele>
        <time>2023-11-13T13:08:14Z</time>
      </trkpt>
      <trkpt lat="47.15402" lon="-0.97519">
        <ele>106</ele>
        <time>2023-11-13T13:09:03Z</time>
      </trkpt>
      <trkpt lat="47.15317" lon="-0.97572">
        <ele>105</ele>
        <time>2023-11-13T13:11:07Z</time>
      </trkpt>
      <trkpt lat="47.15301" lon="-0.97586">
        <ele>104</ele>
        <time>2023-11-13T13:11:31Z</time>
      </trkpt>
      <trkpt lat="47.15288" lon="-0.97605">
        <ele>103</ele>
        <time>2023-11-13T13:11:56Z</time>
      </trkpt>
      <trkpt lat="47.15214" lon="-0.97763">
        <ele>99</ele>
        <time>2023-11-13T13:14:50Z</time>
      </trkpt>
      <trkpt lat="47.15184" lon="-0.97833">
        <ele>98</ele>
        <time>2023-11-13T13:16:05Z</time>
      </trkpt>
      <trkpt lat="47.15166" lon="-0.97882">
        <ele>98</ele>
        <time>2023-11-13T13:16:56Z</time>
      </trkpt>
      <trkpt lat="47.15142" lon="-0.97985">
        <ele>99</ele>
        <time>2023-11-13T13:18:34Z</time>
      </trkpt>
      <trkpt lat="47.15098" lon="-0.98072">
        <ele>101</ele>
        <time>2023-11-13T13:20:13Z</time>
      </trkpt>
      <trkpt lat="47.15084" lon="-0.98091">
        <ele>101</ele>
        <time>2023-11-13T13:20:38Z</time>
      </trkpt>
      <trkpt lat="47.15037" lon="-0.98138">
        <ele>103</ele>
        <time>2023-11-13T13:21:54Z</time>
      </trkpt>
      <trkpt lat="47.15009" lon="-0.98175">
        <ele>104</ele>
        <time>2023-11-13T13:22:44Z</time>
      </trkpt>
      <trkpt lat="47.14949" lon="-0.98237">
        <ele>105</ele>
        <time>2023-11-13T13:24:22Z</time>
      </trkpt>
      <trkpt lat="47.14866" lon="-0.98345">
        <ele>107</ele>
        <time>2023-11-13T13:26:50Z</time>
      </trkpt>
      <trkpt lat="47.14851" lon="-0.98362">
        <ele>107</ele>
        <time>2023-11-13T13:27:15Z</time>
      </trkpt>
      <trkpt lat="47.14819" lon="-0.98391">
        <ele>108</ele>
        <time>2023-11-13T13:28:05Z</time>
      </trkpt>
      <trkpt lat="47.14805" lon="-0.98409">
        <ele>108</ele>
        <time>2023-11-13T13:28:30Z</time>
      </trkpt>
      <trkpt lat="47.14734" lon="-0.98536">
        <ele>108</ele>
        <time>2023-11-13T13:30:59Z</time>
      </trkpt>
      <trkpt lat="47.14724" lon="-0.98559">
        <ele>108</ele>
        <time>2023-11-13T13:31:24Z</time>
      </trkpt>
      <trkpt lat="47.14709" lon="-0.98638">
        <ele>108</ele>
        <time>2023-11-13T13:32:39Z</time>
      </trkpt>
      <trkpt lat="47.14698" lon="-0.98746">
        <ele>107</ele>
        <time>2023-11-13T13:34:18Z</time>
      </trkpt>
      <trkpt lat="47.14687" lon="-0.98768">
        <ele>108</ele>
        <time>2023-11-13T13:34:43Z</time>
      </trkpt>
      <trkpt lat="47.14673" lon="-0.98787">
        <ele>108</ele>
        <time>2023-11-13T13:35:08Z</time>
      </trkpt>
      <trkpt lat="47.14595" lon="-0.9886">
        <ele>108</ele>
        <time>2023-11-13T13:37:11Z</time>
      </trkpt>
      <trkpt lat="47.14578" lon="-0.98872">
        <ele>109</ele>
        <time>2023-11-13T13:37:37Z</time>
      </trkpt>
      <trkpt lat="47.14543" lon="-0.9889">
        <ele>109</ele>
        <time>2023-11-13T13:38:26Z</time>
      </trkpt>
      <trkpt lat="47.14524" lon="-0.98936">
        <ele>110</ele>
        <time>2023-11-13T13:39:15Z</time>
      </trkpt>
      <trkpt lat="47.14502" lon="-0.9898">
        <ele>111</ele>
        <time>2023-11-13T13:40:04Z</time>
      </trkpt>
      <trkpt lat="47.1443" lon="-0.99106">
        <ele>108</ele>
        <time>2023-11-13T13:42:34Z</time>
      </trkpt>
      <trkpt lat="47.14408" lon="-0.99153">
        <ele>107</ele>
        <time>2023-11-13T13:43:26Z</time>
      </trkpt>
      <trkpt lat="47.14391" lon="-0.992">
        <ele>106</ele>
        <time>2023-11-13T13:44:14Z</time>
      </trkpt>
      <trkpt lat="47.1438" lon="-0.99222">
        <ele>106</ele>
        <time>2023-11-13T13:44:39Z</time>
      </trkpt>
      <trkpt lat="47.14362" lon="-0.99219">
        <ele>106</ele>
        <time>2023-11-13T13:45:03Z</time>
      </trkpt>
      <trkpt lat="47.14344" lon="-0.9921">
        <ele>105</ele>
        <time>2023-11-13T13:45:28Z</time>
      </trkpt>
      <trkpt lat="47.14294" lon="-0.99173">
        <ele>105</ele>
        <time>2023-11-13T13:46:43Z</time>
      </trkpt>
      <trkpt lat="47.14276" lon="-0.99166">
        <ele>104</ele>
        <time>2023-11-13T13:47:08Z</time>
      </trkpt>
      <trkpt lat="47.14257" lon="-0.99164">
        <ele>103</ele>
        <time>2023-11-13T13:47:33Z</time>
      </trkpt>
      <trkpt lat="47.14183" lon="-0.99167">
        <ele>103</ele>
        <time>2023-11-13T13:49:12Z</time>
      </trkpt>
      <trkpt lat="47.14128" lon="-0.99158">
        <ele>103</ele>
        <time>2023-11-13T13:50:26Z</time>
      </trkpt>
      <trkpt lat="47.14073" lon="-0.99144">
        <ele>102</ele>
        <time>2023-11-13T13:51:40Z</time>
      </trkpt>
      <trkpt lat="47.13982" lon="-0.99128">
        <ele>99</ele>
        <time>2023-11-13T13:53:43Z</time>
      </trkpt>
      <trkpt lat="47.13945" lon="-0.99119">
        <ele>98</ele>
        <time>2023-11-13T13:54:33Z</time>
      </trkpt>
      <trkpt lat="47.13909" lon="-0.99116">
        <ele>97</ele>
        <time>2023-11-13T13:55:21Z</time>
      </trkpt>
      <trkpt lat="47.13872" lon="-0.99109">
        <ele>96</ele>
        <time>2023-11-13T13:56:11Z</time>
      </trkpt>
      <trkpt lat="47.13854" lon="-0.991">
        <ele>95</ele>
        <time>2023-11-13T13:56:36Z</time>
      </trkpt>
      <trkpt lat="47.13818" lon="-0.99087">
        <ele>94</ele>
        <time>2023-11-13T13:57:25Z</time>
      </trkpt>
      <trkpt lat="47.13802" lon="-0.99073">
        <ele>93</ele>
        <time>2023-11-13T13:57:50Z</time>
      </trkpt>
      <trkpt lat="47.13767" lon="-0.99053">
        <ele>91</ele>
        <time>2023-11-13T13:58:40Z</time>
      </trkpt>
      <trkpt lat="47.13731" lon="-0.99038">
        <ele>90</ele>
        <time>2023-11-13T13:59:30Z</time>
      </trkpt>
      <trkpt lat="47.13695" lon="-0.99038">
        <ele>89</ele>
        <time>2023-11-13T14:00:18Z</time>
      </trkpt>
      <trkpt lat="47.13676" lon="-0.99043">
        <ele>89</ele>
        <time>2023-11-13T14:00:44Z</time>
      </trkpt>
      <trkpt lat="47.13639" lon="-0.99046">
        <ele>88</ele>
        <time>2023-11-13T14:01:34Z</time>
      </trkpt>
      <trkpt lat="47.1362" lon="-0.9905">
        <ele>88</ele>
        <time>2023-11-13T14:01:59Z</time>
      </trkpt>
      <trkpt lat="47.13548" lon="-0.99078">
        <ele>86</ele>
        <time>2023-11-13T14:03:39Z</time>
      </trkpt>
      <trkpt lat="47.13493" lon="-0.99083">
        <ele>84</ele>
        <time>2023-11-13T14:04:52Z</time>
      </trkpt>
      <trkpt lat="47.13475" lon="-0.9908">
        <ele>83</ele>
        <time>2023-11-13T14:05:16Z</time>
      </trkpt>
      <trkpt lat="47.13438" lon="-0.99079">
        <ele>82</ele>
        <time>2023-11-13T14:06:06Z</time>
      </trkpt>
      <trkpt lat="47.134" lon="-0.99081">
        <ele>81</ele>
        <time>2023-11-13T14:06:56Z</time>
      </trkpt>
      <trkpt lat="47.13345" lon="-0.99093">
        <ele>80</ele>
        <time>2023-11-13T14:08:11Z</time>
      </trkpt>
      <trkpt lat="47.13326" lon="-0.99095">
        <ele>80</ele>
        <time>2023-11-13T14:08:36Z</time>
      </trkpt>
      <trkpt lat="47.13289" lon="-0.99106">
        <ele>81</ele>
        <time>2023-11-13T14:09:26Z</time>
      </trkpt>
      <trkpt lat="47.13277" lon="-0.99126">
        <ele>81</ele>
        <time>2023-11-13T14:09:51Z</time>
      </trkpt>
      <trkpt lat="47.13277" lon="-0.99153">
        <ele>81</ele>
        <time>2023-11-13T14:10:15Z</time>
      </trkpt>
      <trkpt lat="47.1327" lon="-0.99177">
        <ele>81</ele>
        <time>2023-11-13T14:10:39Z</time>
      </trkpt>
      <trkpt lat="47.13225" lon="-0.99267">
        <ele>81</ele>
        <time>2023-11-13T14:12:20Z</time>
      </trkpt>
      <trkpt lat="47.13213" lon="-0.99319">
        <ele>82</ele>
        <time>2023-11-13T14:13:10Z</time>
      </trkpt>
      <trkpt lat="47.13184" lon="-0.99418">
        <ele>81</ele>
        <time>2023-11-13T14:14:48Z</time>
      </trkpt>
      <trkpt lat="47.13175" lon="-0.99471">
        <ele>82</ele>
        <time>2023-11-13T14:15:38Z</time>
      </trkpt>
      <trkpt lat="47.13174" lon="-0.99553">
        <ele>82</ele>
        <time>2023-11-13T14:16:52Z</time>
      </trkpt>
      <trkpt lat="47.13177" lon="-0.99636">
        <ele>81</ele>
        <time>2023-11-13T14:18:07Z</time>
      </trkpt>
      <trkpt lat="47.13165" lon="-0.99657">
        <ele>81</ele>
        <time>2023-11-13T14:18:32Z</time>
      </trkpt>
      <trkpt lat="47.13146" lon="-0.9966">
        <ele>82</ele>
        <time>2023-11-13T14:18:58Z</time>
      </trkpt>
      <trkpt lat="47.1311" lon="-0.99652">
        <ele>84</ele>
        <time>2023-11-13T14:19:46Z</time>
      </trkpt>
      <trkpt lat="47.13091" lon="-0.99651">
        <ele>85</ele>
        <time>2023-11-13T14:20:12Z</time>
      </trkpt>
      <trkpt lat="47.13073" lon="-0.99643">
        <ele>86</ele>
        <time>2023-11-13T14:20:37Z</time>
      </trkpt>
      <trkpt lat="47.13019" lon="-0.99632">
        <ele>87</ele>
        <time>2023-11-13T14:21:50Z</time>
      </trkpt>
      <trkpt lat="47.12999" lon="-0.99634">
        <ele>87</ele>
        <time>2023-11-13T14:22:16Z</time>
      </trkpt>
      <trkpt lat="47.12962" lon="-0.9963">
        <ele>88</ele>
        <time>2023-11-13T14:23:06Z</time>
      </trkpt>
      <trkpt lat="47.12906" lon="-0.99632">
        <ele>90</ele>
        <time>2023-11-13T14:24:21Z</time>
      </trkpt>
      <trkpt lat="47.12869" lon="-0.99639">
        <ele>91</ele>
        <time>2023-11-13T14:25:10Z</time>
      </trkpt>
      <trkpt lat="47.12851" lon="-0.99646">
        <ele>92</ele>
        <time>2023-11-13T14:25:35Z</time>
      </trkpt>
      <trkpt lat="47.12832" lon="-0.99648">
        <ele>93</ele>
        <time>2023-11-13T14:26:01Z</time>
      </trkpt>
      <trkpt lat="47.12815" lon="-0.99654">
        <ele>93</ele>
        <time>2023-11-13T14:26:24Z</time>
      </trkpt>
      <trkpt lat="47.128" lon="-0.99639">
        <ele>93</ele>
        <time>2023-11-13T14:26:48Z</time>
      </trkpt>
      <trkpt lat="47.128" lon="-0.99611">
        <ele>93</ele>
        <time>2023-11-13T14:27:14Z</time>
      </trkpt>
      <trkpt lat="47.12769" lon="-0.99484">
        <ele>93</ele>
        <time>2023-11-13T14:29:16Z</time>
      </trkpt>
      <trkpt lat="47.12749" lon="-0.99438">
        <ele>93</ele>
        <time>2023-11-13T14:30:06Z</time>
      </trkpt>
      <trkpt lat="47.12747" lon="-0.9941">
        <ele>93</ele>
        <time>2023-11-13T14:30:31Z</time>
      </trkpt>
      <trkpt lat="47.12724" lon="-0.99307">
        <ele>95</ele>
        <time>2023-11-13T14:32:10Z</time>
      </trkpt>
      <trkpt lat="47.12713" lon="-0.99285">
        <ele>95</ele>
        <time>2023-11-13T14:32:35Z</time>
      </trkpt>
      <trkpt lat="47.12695" lon="-0.9929">
        <ele>95</ele>
        <time>2023-11-13T14:32:59Z</time>
      </trkpt>
      <trkpt lat="47.12641" lon="-0.99316">
        <ele>94</ele>
        <time>2023-11-13T14:34:15Z</time>
      </trkpt>
      <trkpt lat="47.12604" lon="-0.99328">
        <ele>95</ele>
        <time>2023-11-13T14:35:05Z</time>
      </trkpt>
      <trkpt lat="47.12587" lon="-0.99339">
        <ele>95</ele>
        <time>2023-11-13T14:35:30Z</time>
      </trkpt>
      <trkpt lat="47.1255" lon="-0.99351">
        <ele>96</ele>
        <time>2023-11-13T14:36:21Z</time>
      </trkpt>
      <trkpt lat="47.12535" lon="-0.99368">
        <ele>96</ele>
        <time>2023-11-13T14:36:46Z</time>
      </trkpt>
      <trkpt lat="47.12536" lon="-0.99422">
        <ele>94</ele>
        <time>2023-11-13T14:37:35Z</time>
      </trkpt>
      <trkpt lat="47.12524" lon="-0.99443">
        <ele>95</ele>
        <time>2023-11-13T14:38:00Z</time>
      </trkpt>
    </trkseg>
  </trk>
</gpx>